createdAt,value
2023-04-30T00:02:10.993Z,14.01
2023-04-30T00:04:37.955Z,14.00
2023-04-30T00:07:04.882Z,13.98
2023-04-30T00:09:31.750Z,13.94
2023-04-30T00:11:58.568Z,13.92
2023-04-30T00:14:25.566Z,13.90
2023-04-30T00:16:52.410Z,13.87
2023-04-30T00:19:19.361Z,13.87
2023-04-30T00:21:46.358Z,13.83
2023-04-30T00:24:13.161Z,13.82
2023-04-30T00:26:40.093Z,13.81
2023-04-30T00:29:07.361Z,13.79
2023-04-30T00:31:34.171Z,13.78
2023-04-30T00:34:01.093Z,13.77
2023-04-30T00:36:27.908Z,13.72
2023-04-30T00:38:54.700Z,13.71
2023-04-30T00:41:21.621Z,13.71
2023-04-30T00:43:48.437Z,13.70
2023-04-30T00:46:15.286Z,13.65
2023-04-30T00:48:42.296Z,13.61
2023-04-30T00:51:09.190Z,13.59
2023-04-30T00:53:36.668Z,13.56
2023-04-30T00:56:04.054Z,13.54
2023-04-30T00:58:31.144Z,13.53
2023-04-30T01:01:01.940Z,13.53
2023-04-30T01:03:29.158Z,13.53
2023-04-30T01:05:56.078Z,13.51
2023-04-30T01:08:22.988Z,13.45
2023-04-30T01:10:54.415Z,13.43
2023-04-30T01:13:30.857Z,13.39
2023-04-30T01:16:01.002Z,13.35
2023-04-30T01:18:31.830Z,13.32
2023-04-30T01:21:02.271Z,13.31
2023-04-30T01:23:38.292Z,13.30
2023-04-30T01:26:14.290Z,13.31
2023-04-30T01:28:44.232Z,13.29
2023-04-30T01:31:15.126Z,13.27
2023-04-30T01:33:42.040Z,13.25
2023-04-30T01:36:17.533Z,13.20
2023-04-30T01:38:54.312Z,13.17
2023-04-30T01:41:21.934Z,13.12
2023-04-30T01:43:56.424Z,13.09
2023-04-30T01:46:27.772Z,13.07
2023-04-30T01:49:04.290Z,13.00
2023-04-30T01:51:33.079Z,12.96
2023-04-30T01:54:03.639Z,12.97
2023-04-30T01:56:38.632Z,12.97
2023-04-30T01:59:06.262Z,12.96
2023-04-30T02:01:33.614Z,12.91
2023-04-30T02:04:00.744Z,12.89
2023-04-30T02:06:28.869Z,12.90
2023-04-30T02:08:57.036Z,12.88
2023-04-30T02:11:24.955Z,12.88
2023-04-30T02:13:51.804Z,12.89
2023-04-30T02:16:18.785Z,12.88
2023-04-30T02:18:46.037Z,12.83
2023-04-30T02:21:12.955Z,12.84
2023-04-30T02:23:39.793Z,12.84
2023-04-30T02:26:06.577Z,12.81
2023-04-30T02:28:33.449Z,12.81
2023-04-30T02:31:00.234Z,12.78
2023-04-30T02:33:27.073Z,12.78
2023-04-30T02:35:55.509Z,12.79
2023-04-30T02:38:22.303Z,12.77
2023-04-30T02:40:49.240Z,12.75
2023-04-30T02:43:15.999Z,12.72
2023-04-30T02:45:43.019Z,12.70
2023-04-30T02:48:09.959Z,12.66
2023-04-30T02:50:36.778Z,12.66
2023-04-30T02:53:03.645Z,12.64
2023-04-30T02:55:31.391Z,12.64
2023-04-30T02:57:58.215Z,12.61
2023-04-30T03:00:25.046Z,12.61
2023-04-30T03:02:51.946Z,12.58
2023-04-30T03:05:18.971Z,12.56
2023-04-30T03:07:45.785Z,12.55
2023-04-30T03:10:12.626Z,12.55
2023-04-30T03:12:39.478Z,12.53
2023-04-30T03:15:07.039Z,12.50
2023-04-30T03:17:34.012Z,12.47
2023-04-30T03:20:00.870Z,12.46
2023-04-30T03:22:27.773Z,12.45
2023-04-30T03:24:54.574Z,12.42
2023-04-30T03:27:21.325Z,12.42
2023-04-30T03:29:49.329Z,12.41
2023-04-30T03:32:16.178Z,12.37
2023-04-30T03:34:43.048Z,12.35
2023-04-30T03:37:09.883Z,12.33
2023-04-30T03:39:36.658Z,12.31
2023-04-30T03:42:03.890Z,12.30
2023-04-30T03:44:30.698Z,12.31
2023-04-30T03:46:57.600Z,12.32
2023-04-30T03:49:24.417Z,12.33
2023-04-30T03:51:51.332Z,12.30
2023-04-30T03:54:18.193Z,12.29
2023-04-30T03:56:45.092Z,12.24
2023-04-30T03:59:12.008Z,12.20
2023-04-30T04:01:38.824Z,12.19
2023-04-30T04:04:05.811Z,12.19
2023-04-30T04:06:32.793Z,12.17
2023-04-30T04:08:59.671Z,12.15
2023-04-30T04:11:26.743Z,12.15
2023-04-30T04:13:53.532Z,12.13
2023-04-30T04:16:20.684Z,12.13
2023-04-30T04:18:47.564Z,12.11
2023-04-30T04:21:14.419Z,12.09
2023-04-30T04:23:44.309Z,12.05
2023-04-30T04:26:11.145Z,12.05
2023-04-30T04:28:39.500Z,12.03
2023-04-30T04:31:06.364Z,12.03
2023-04-30T04:33:33.461Z,11.99
2023-04-30T04:36:00.255Z,12.02
2023-04-30T04:38:27.150Z,12.03
2023-04-30T04:40:54.698Z,12.05
2023-04-30T04:43:23.978Z,12.04
2023-04-30T04:45:50.957Z,11.99
2023-04-30T04:48:17.772Z,11.99
2023-04-30T04:50:44.628Z,12.00
2023-04-30T04:53:11.468Z,11.99
2023-04-30T04:55:38.276Z,11.97
2023-04-30T04:58:05.064Z,11.98
2023-04-30T05:00:31.876Z,12.00
2023-04-30T05:02:59.002Z,12.00
2023-04-30T05:05:26.159Z,12.03
2023-04-30T05:07:55.299Z,11.98
2023-04-30T05:10:22.282Z,12.03
2023-04-30T05:12:49.060Z,12.06
2023-04-30T05:15:15.949Z,12.07
2023-04-30T05:17:42.915Z,12.07
2023-04-30T05:20:10.367Z,12.08
2023-04-30T05:22:37.160Z,12.09
2023-04-30T05:25:04.617Z,12.10
2023-04-30T05:27:31.382Z,12.10
2023-04-30T05:29:58.158Z,12.15
2023-04-30T05:32:25.070Z,12.17
2023-04-30T05:34:52.666Z,12.23
2023-04-30T05:37:20.881Z,12.25
2023-04-30T05:39:47.674Z,12.24
2023-04-30T05:42:14.521Z,12.25
2023-04-30T05:44:41.764Z,12.27
2023-04-30T05:47:08.596Z,12.30
2023-04-30T05:49:37.711Z,12.32
2023-04-30T05:52:04.642Z,12.37
2023-04-30T05:54:31.647Z,12.42
2023-04-30T05:56:58.505Z,12.47
2023-04-30T05:59:26.251Z,12.49
2023-04-30T06:01:53.249Z,12.57
2023-04-30T06:04:20.258Z,12.62
2023-04-30T06:06:47.109Z,12.67
2023-04-30T06:09:14.103Z,12.75
2023-04-30T06:11:42.502Z,12.84
2023-04-30T06:14:10.481Z,12.90
2023-04-30T06:16:38.403Z,12.97
2023-04-30T06:19:05.316Z,13.03
2023-04-30T06:21:32.266Z,13.16
2023-04-30T06:23:59.044Z,13.46
2023-04-30T06:26:25.855Z,13.77
2023-04-30T06:28:52.749Z,14.05
2023-04-30T06:31:19.609Z,14.35
2023-04-30T06:33:46.452Z,14.52
2023-04-30T06:36:13.693Z,14.64
2023-04-30T06:38:40.835Z,14.74
2023-04-30T06:41:07.762Z,14.85
2023-04-30T06:43:34.605Z,14.98
2023-04-30T06:46:01.536Z,15.16
2023-04-30T06:48:28.453Z,15.57
2023-04-30T06:50:55.326Z,16.03
2023-04-30T06:53:22.189Z,16.19
2023-04-30T06:55:49.086Z,16.09
2023-04-30T06:58:15.940Z,16.01
2023-04-30T07:00:43.358Z,15.97
2023-04-30T07:03:10.336Z,15.90
2023-04-30T07:05:37.445Z,16.02
2023-04-30T07:08:04.729Z,16.30
2023-04-30T07:10:31.999Z,16.54
2023-04-30T07:12:59.741Z,16.52
2023-04-30T07:15:26.892Z,16.48
2023-04-30T07:17:53.874Z,16.45
2023-04-30T07:20:20.755Z,16.40
2023-04-30T07:22:47.589Z,16.35
2023-04-30T07:25:14.488Z,16.31
2023-04-30T07:27:41.812Z,16.24
2023-04-30T07:30:11.078Z,16.24
2023-04-30T07:32:38.759Z,16.24
2023-04-30T07:35:06.622Z,16.30
2023-04-30T07:37:35.397Z,16.33
2023-04-30T07:40:03.921Z,16.31
2023-04-30T07:42:30.786Z,16.32
2023-04-30T07:44:57.824Z,16.58
2023-04-30T07:47:25.932Z,17.02
2023-04-30T07:49:53.194Z,17.44
2023-04-30T07:52:23.566Z,17.88
2023-04-30T07:54:50.439Z,18.02
2023-04-30T07:57:17.621Z,18.10
2023-04-30T07:59:44.465Z,18.07
2023-04-30T08:02:11.339Z,18.13
2023-04-30T08:04:38.244Z,18.17
2023-04-30T08:07:05.092Z,18.19
2023-04-30T08:09:32.056Z,18.16
2023-04-30T08:11:58.932Z,18.20
2023-04-30T08:14:25.836Z,18.24
2023-04-30T08:16:53.047Z,18.33
2023-04-30T08:19:19.902Z,18.27
2023-04-30T08:21:46.864Z,18.11
2023-04-30T08:24:13.885Z,18.03
2023-04-30T08:26:40.815Z,18.01
2023-04-30T08:29:08.830Z,18.01
2023-04-30T08:31:36.148Z,18.00
2023-04-30T08:34:03.080Z,17.96
2023-04-30T08:36:30.024Z,17.88
2023-04-30T08:38:57.924Z,17.77
2023-04-30T08:41:26.668Z,17.73
2023-04-30T08:43:54.214Z,17.66
2023-04-30T08:46:21.266Z,17.59
2023-04-30T08:48:49.311Z,17.58
2023-04-30T08:51:17.605Z,17.62
2023-04-30T08:53:45.014Z,17.66
2023-04-30T08:56:11.904Z,17.69
2023-04-30T08:58:39.898Z,17.73
2023-04-30T09:01:11.149Z,17.82
2023-04-30T09:03:38.330Z,17.90
2023-04-30T09:06:05.434Z,18.00
2023-04-30T09:08:42.102Z,18.19
2023-04-30T09:11:19.213Z,18.36
2023-04-30T09:13:46.160Z,18.43
2023-04-30T09:16:13.202Z,18.49
2023-04-30T09:18:42.146Z,18.54
2023-04-30T09:21:10.375Z,18.57
2023-04-30T09:23:37.324Z,18.64
2023-04-30T09:26:04.351Z,18.69
2023-04-30T09:28:32.147Z,18.71
2023-04-30T09:30:59.086Z,18.83
2023-04-30T09:33:25.940Z,18.92
2023-04-30T09:35:52.985Z,18.96
2023-04-30T09:38:29.816Z,19.00
2023-04-30T09:40:59.101Z,19.06
2023-04-30T09:43:26.392Z,19.08
2023-04-30T09:45:53.285Z,19.11
2023-04-30T09:48:24.347Z,19.11
2023-04-30T09:50:52.399Z,19.13
2023-04-30T09:53:20.563Z,19.15
2023-04-30T09:55:50.007Z,19.16
2023-04-30T09:58:18.109Z,19.13
2023-04-30T10:00:46.691Z,19.17
2023-04-30T10:03:15.329Z,19.17
2023-04-30T10:05:43.365Z,19.15
2023-04-30T10:08:13.782Z,19.16
2023-04-30T10:10:43.606Z,19.23
2023-04-30T10:13:12.010Z,19.29
2023-04-30T10:15:40.856Z,19.32
2023-04-30T10:18:12.145Z,19.30
2023-04-30T10:20:39.439Z,19.33
2023-04-30T10:23:07.617Z,19.32
2023-04-30T10:25:34.712Z,19.33
2023-04-30T10:28:04.505Z,19.34
2023-04-30T10:30:32.396Z,19.31
2023-04-30T10:32:59.506Z,19.30
2023-04-30T10:35:29.181Z,19.32
2023-04-30T10:38:05.975Z,19.34
2023-04-30T10:40:39.950Z,19.35
2023-04-30T10:43:06.886Z,19.31
2023-04-30T10:45:35.253Z,19.32
2023-04-30T10:48:03.845Z,19.30
2023-04-30T10:50:31.152Z,19.31
2023-04-30T10:53:07.597Z,19.31
2023-04-30T10:55:39.952Z,19.30
2023-04-30T10:58:23.370Z,19.35
2023-04-30T11:00:59.684Z,19.39
2023-04-30T11:03:28.762Z,19.48
2023-04-30T11:05:55.982Z,19.59
2023-04-30T11:08:32.418Z,19.66
2023-04-30T11:11:02.161Z,19.68
2023-04-30T11:13:29.103Z,19.66
2023-04-30T11:16:02.922Z,19.66
2023-04-30T11:18:30.043Z,19.64
2023-04-30T11:20:57.867Z,19.61
2023-04-30T11:23:38.488Z,19.59
2023-04-30T11:26:07.998Z,19.63
2023-04-30T11:28:36.191Z,19.66
2023-04-30T11:31:03.943Z,19.63
2023-04-30T11:33:31.890Z,19.62
2023-04-30T11:36:00.051Z,19.69
2023-04-30T11:38:28.598Z,19.70
2023-04-30T11:40:55.873Z,19.75
2023-04-30T11:43:24.558Z,19.74
2023-04-30T11:46:00.511Z,19.67
2023-04-30T11:48:35.281Z,19.69
2023-04-30T11:51:04.026Z,19.70
2023-04-30T11:53:31.555Z,19.73
2023-04-30T11:56:02.694Z,19.73
2023-04-30T11:58:33.891Z,19.78
2023-04-30T12:01:01.893Z,19.81
2023-04-30T12:03:29.743Z,19.88
2023-04-30T12:05:56.923Z,19.91
2023-04-30T12:08:24.621Z,19.95
2023-04-30T12:10:51.438Z,19.98
2023-04-30T12:13:18.486Z,20.04
2023-04-30T12:15:57.999Z,20.02
2023-04-30T12:18:24.945Z,20.07
2023-04-30T12:20:52.128Z,20.13
2023-04-30T12:23:19.784Z,20.17
2023-04-30T12:25:48.207Z,20.24
2023-04-30T12:28:15.329Z,20.29
2023-04-30T12:30:43.548Z,20.30
2023-04-30T12:33:11.219Z,20.28
2023-04-30T12:35:42.821Z,20.25
2023-04-30T12:38:10.048Z,20.21
2023-04-30T12:40:37.421Z,20.16
2023-04-30T12:43:05.591Z,20.08
2023-04-30T12:45:42.480Z,20.06
2023-04-30T12:48:09.777Z,20.07
2023-04-30T12:50:36.885Z,20.10
2023-04-30T12:53:04.232Z,20.14
2023-04-30T12:55:31.589Z,20.17
2023-04-30T12:58:06.731Z,20.18
2023-04-30T13:00:43.426Z,20.18
2023-04-30T13:03:10.679Z,20.27
2023-04-30T13:05:37.744Z,20.33
2023-04-30T13:08:06.703Z,20.34
2023-04-30T13:10:33.655Z,20.37
2023-04-30T13:13:00.527Z,20.37
2023-04-30T13:15:27.816Z,20.38
2023-04-30T13:17:54.789Z,20.41
2023-04-30T13:20:22.089Z,20.45
2023-04-30T13:22:48.988Z,20.49
2023-04-30T13:25:16.016Z,20.51
2023-04-30T13:27:43.203Z,20.52
2023-04-30T13:30:10.840Z,20.54
2023-04-30T13:32:37.800Z,20.57
2023-04-30T13:35:05.042Z,20.53
2023-04-30T13:37:32.446Z,20.55
2023-04-30T13:40:01.796Z,20.55
2023-04-30T13:42:28.820Z,20.60
2023-04-30T13:44:55.798Z,20.61
2023-04-30T13:47:22.875Z,20.59
2023-04-30T13:49:49.779Z,20.57
2023-04-30T13:52:16.920Z,20.51
2023-04-30T13:54:44.002Z,20.51
2023-04-30T13:57:10.956Z,20.53
2023-04-30T13:59:38.884Z,20.55
2023-04-30T14:02:05.946Z,20.60
2023-04-30T14:04:32.950Z,20.65
2023-04-30T14:07:00.127Z,20.68
2023-04-30T14:09:27.530Z,20.68
2023-04-30T14:11:56.543Z,20.73
2023-04-30T14:14:23.700Z,20.73
2023-04-30T14:16:50.829Z,20.74
2023-04-30T14:19:17.876Z,20.65
2023-04-30T14:21:44.928Z,20.60
2023-04-30T14:24:13.289Z,20.61
2023-04-30T14:26:41.564Z,20.63
2023-04-30T14:29:08.886Z,20.62
2023-04-30T14:31:35.815Z,20.67
2023-04-30T14:34:03.135Z,20.70
2023-04-30T14:36:30.182Z,20.66
2023-04-30T14:38:56.985Z,20.70
2023-04-30T14:41:23.911Z,20.72
2023-04-30T14:43:50.746Z,20.76
2023-04-30T14:46:18.424Z,20.72
2023-04-30T14:48:45.719Z,20.64
2023-04-30T14:51:12.583Z,20.60
2023-04-30T14:53:39.708Z,20.61
2023-04-30T14:56:07.517Z,20.62
2023-04-30T14:58:34.427Z,20.58
2023-04-30T15:01:01.792Z,20.54
2023-04-30T15:03:29.120Z,20.48
2023-04-30T15:05:56.454Z,20.41
2023-04-30T15:08:23.469Z,20.43
2023-04-30T15:10:50.474Z,20.39
2023-04-30T15:13:17.323Z,20.33
2023-04-30T15:15:47.321Z,20.32
2023-04-30T15:18:14.785Z,20.26
2023-04-30T15:20:42.019Z,20.25
2023-04-30T15:23:09.194Z,20.26
2023-04-30T15:25:36.265Z,20.25
2023-04-30T15:28:03.638Z,20.28
2023-04-30T15:30:30.520Z,20.28
2023-04-30T15:32:57.750Z,20.24
2023-04-30T15:35:24.961Z,20.20
2023-04-30T15:37:51.919Z,20.20
2023-04-30T15:40:19.297Z,20.18
2023-04-30T15:42:46.604Z,20.14
2023-04-30T15:45:13.613Z,20.10
2023-04-30T15:47:41.647Z,20.06
2023-04-30T15:50:09.026Z,20.02
2023-04-30T15:52:37.643Z,20.01
2023-04-30T15:55:06.798Z,19.99
2023-04-30T15:57:33.637Z,19.96
2023-04-30T16:00:00.734Z,19.91
2023-04-30T16:02:27.824Z,19.87
2023-04-30T16:04:54.894Z,19.86
2023-04-30T16:07:21.796Z,19.84
2023-04-30T16:09:49.709Z,19.84
2023-04-30T16:12:16.823Z,19.81
2023-04-30T16:14:43.787Z,19.76
2023-04-30T16:17:11.024Z,19.74
2023-04-30T16:19:38.005Z,19.72
2023-04-30T16:22:04.923Z,19.67
2023-04-30T16:24:31.796Z,19.60
2023-04-30T16:26:58.767Z,19.55
2023-04-30T16:29:26.301Z,19.50
2023-04-30T16:31:53.861Z,19.48
2023-04-30T16:34:20.879Z,19.45
2023-04-30T16:36:47.753Z,19.43
2023-04-30T16:39:17.038Z,19.36
2023-04-30T16:41:44.131Z,19.31
2023-04-30T16:44:11.657Z,19.26
2023-04-30T16:46:38.637Z,19.20
2023-04-30T16:49:05.696Z,19.17
2023-04-30T16:51:33.463Z,19.14
2023-04-30T16:54:00.386Z,19.13
2023-04-30T16:56:27.357Z,19.10
2023-04-30T16:58:54.496Z,19.06
2023-04-30T17:01:21.436Z,19.06
2023-04-30T17:03:48.588Z,19.08
2023-04-30T17:06:15.677Z,19.03
2023-04-30T17:08:42.600Z,18.97
2023-04-30T17:11:12.127Z,18.91
2023-04-30T17:13:39.087Z,18.90
2023-04-30T17:16:08.352Z,18.89
2023-04-30T17:18:35.418Z,18.86
2023-04-30T17:21:02.320Z,18.82
2023-04-30T17:23:29.187Z,18.77
2023-04-30T17:25:57.735Z,18.71
2023-04-30T17:28:24.777Z,18.66
2023-04-30T17:30:51.714Z,18.65
2023-04-30T17:33:18.619Z,18.65
2023-04-30T17:35:45.553Z,18.61
2023-04-30T17:38:12.458Z,18.59
2023-04-30T17:40:39.511Z,18.57
2023-04-30T17:43:07.268Z,18.55
2023-04-30T17:45:34.199Z,18.50
2023-04-30T17:48:01.253Z,18.43
2023-04-30T17:50:28.203Z,18.42
2023-04-30T17:52:55.239Z,18.38
2023-04-30T17:55:22.336Z,18.35
2023-04-30T17:57:49.223Z,18.28
2023-04-30T18:00:17.661Z,18.24
2023-04-30T18:02:44.895Z,18.19
2023-04-30T18:05:12.142Z,18.15
2023-04-30T18:07:39.027Z,18.12
2023-04-30T18:10:06.627Z,18.11
2023-04-30T18:12:33.701Z,18.06
2023-04-30T18:15:01.037Z,18.03
2023-04-30T18:17:28.072Z,17.97
2023-04-30T18:19:55.169Z,17.97
2023-04-30T18:22:22.462Z,17.93
2023-04-30T18:24:49.523Z,17.90
2023-04-30T18:27:16.566Z,17.86
2023-04-30T18:29:44.558Z,17.81
2023-04-30T18:32:13.051Z,17.74
2023-04-30T18:34:40.176Z,17.69
2023-04-30T18:37:07.068Z,17.66
2023-04-30T18:39:33.971Z,17.66
2023-04-30T18:42:00.901Z,17.64
2023-04-30T18:44:30.662Z,17.65
2023-04-30T18:46:57.601Z,17.64
2023-04-30T18:49:24.522Z,17.61
2023-04-30T18:51:51.455Z,17.61
2023-04-30T18:54:18.816Z,17.60
2023-04-30T18:56:45.737Z,17.61
2023-04-30T18:59:12.712Z,17.62
2023-04-30T19:01:39.729Z,17.64
2023-04-30T19:04:06.846Z,17.61
2023-04-30T19:06:34.778Z,17.54
2023-04-30T19:09:01.768Z,17.52
2023-04-30T19:11:28.984Z,17.46
2023-04-30T19:13:56.054Z,17.42
2023-04-30T19:16:23.108Z,17.41
2023-04-30T19:18:49.996Z,17.38
2023-04-30T19:21:18.486Z,17.38
2023-04-30T19:23:45.650Z,17.39
2023-04-30T19:26:12.636Z,17.37
2023-04-30T19:28:39.500Z,17.36
2023-04-30T19:31:06.459Z,17.37
2023-04-30T19:33:39.720Z,17.34
2023-04-30T19:36:06.804Z,17.32
2023-04-30T19:38:33.751Z,17.31
2023-04-30T19:41:01.140Z,17.29
2023-04-30T19:43:41.835Z,17.22
2023-04-30T19:46:17.567Z,17.17
2023-04-30T19:48:51.133Z,17.16
2023-04-30T19:51:24.047Z,17.18
2023-04-30T19:54:01.301Z,17.18
2023-04-30T19:56:36.573Z,17.18
2023-04-30T19:59:09.391Z,17.19
2023-04-30T20:04:28.787Z,17.10
2023-04-30T20:10:14.536Z,17.03
2023-04-30T20:12:52.934Z,16.99
2023-04-30T20:15:33.949Z,16.98
2023-04-30T20:18:10.875Z,16.96
2023-04-30T20:20:40.241Z,16.99
2023-04-30T20:23:19.223Z,16.98
2023-04-30T20:26:08.221Z,16.96
2023-04-30T20:28:38.669Z,16.93
2023-04-30T20:31:08.263Z,16.96
2023-04-30T20:33:35.318Z,16.96
2023-04-30T20:36:03.467Z,16.95
2023-04-30T20:38:30.731Z,16.93
2023-04-30T20:40:59.019Z,16.95
2023-04-30T20:43:26.055Z,16.96
2023-04-30T20:45:56.630Z,16.95
2023-04-30T20:48:23.613Z,16.91
2023-04-30T20:50:51.002Z,16.92
2023-04-30T20:53:18.392Z,16.90
2023-04-30T20:55:45.229Z,16.89
2023-04-30T20:58:12.315Z,16.87
2023-04-30T21:00:39.468Z,16.86
2023-04-30T21:03:06.884Z,16.85
2023-04-30T21:05:34.611Z,16.83
2023-04-30T21:08:01.916Z,16.82
2023-04-30T21:10:36.776Z,16.79
2023-04-30T21:13:05.895Z,16.79
2023-04-30T21:15:34.681Z,16.80
2023-04-30T21:18:01.868Z,16.79
2023-04-30T21:20:28.983Z,16.77
2023-04-30T21:22:56.966Z,16.76
2023-04-30T21:25:23.844Z,16.75
2023-04-30T21:27:50.774Z,16.73
2023-04-30T21:30:17.902Z,16.73
2023-04-30T21:32:47.319Z,16.72
2023-04-30T21:35:14.733Z,16.71
2023-04-30T21:37:42.577Z,16.69
2023-04-30T21:40:09.875Z,16.65
2023-04-30T21:42:37.062Z,16.63
2023-04-30T21:45:04.161Z,16.64
2023-04-30T21:47:32.011Z,16.67
2023-04-30T21:49:59.385Z,16.68
2023-04-30T21:52:26.578Z,16.66
2023-04-30T21:54:53.480Z,16.63
2023-04-30T21:57:20.511Z,16.60
2023-04-30T21:59:47.400Z,16.57
2023-04-30T22:02:23.253Z,16.55
2023-04-30T22:04:51.088Z,16.53
2023-04-30T22:07:17.895Z,16.51
2023-04-30T22:09:45.268Z,16.49
2023-04-30T22:12:12.506Z,16.48
2023-04-30T22:14:39.551Z,16.47
2023-04-30T22:17:06.953Z,16.48
2023-04-30T22:19:33.812Z,16.49
2023-04-30T22:22:00.823Z,16.46
2023-04-30T22:24:27.676Z,16.45
2023-04-30T22:26:55.039Z,16.44
2023-04-30T22:29:21.885Z,16.43
2023-04-30T22:31:48.841Z,16.40
2023-04-30T22:34:18.237Z,16.41
2023-04-30T22:36:46.314Z,16.42
2023-04-30T22:39:13.712Z,16.40
2023-04-30T22:41:40.906Z,16.39
2023-04-30T22:44:07.922Z,16.38
2023-04-30T22:46:36.980Z,16.38
2023-04-30T22:49:04.175Z,16.36
2023-04-30T22:51:32.007Z,16.35
2023-04-30T22:53:58.932Z,16.36
2023-04-30T22:56:25.784Z,16.35
2023-04-30T22:58:52.635Z,16.32
2023-04-30T23:01:20.427Z,16.26
2023-04-30T23:03:47.372Z,16.23
2023-04-30T23:06:17.104Z,16.21
2023-04-30T23:08:44.648Z,16.21
2023-04-30T23:11:11.589Z,16.23
2023-04-30T23:13:38.964Z,16.22
2023-04-30T23:16:09.028Z,16.22
2023-04-30T23:18:37.559Z,16.23
2023-04-30T23:21:05.554Z,16.22
2023-04-30T23:23:33.044Z,16.23
2023-04-30T23:25:59.844Z,16.21
2023-04-30T23:28:26.752Z,16.20
2023-04-30T23:30:54.591Z,16.17
2023-04-30T23:33:21.925Z,16.14
2023-04-30T23:35:49.240Z,16.11
2023-04-30T23:38:16.633Z,16.11
2023-04-30T23:40:44.139Z,16.08
2023-04-30T23:43:12.893Z,16.11
2023-04-30T23:45:42.451Z,16.10
2023-04-30T23:48:10.685Z,16.06
2023-04-30T23:50:38.579Z,16.03
2023-04-30T23:53:05.399Z,15.99
2023-04-30T23:55:32.266Z,15.95
2023-04-30T23:57:59.083Z,15.98
